Terminal Aerodrome Forecast
Issued by NWS Indianapolis, IN

Home | Current Version | Previous Version | Text Only | Print | Product List | Glossary On
Versions: 1 2 3 4 5 6 7 8 9 10 11 12 13 14 15 16 17 18 19 20 21 22 23 24 25 26
000
FTUS43 KIND 272300
TAFIND
TAF
KIND 272328Z 2800/2906 01012KT P6SM BKN045
     FM280500 36007KT P6SM SCT045 SCT250
     FM280700 01005KT P6SM FEW250
     FM281600 04009KT P6SM SCT040 SCT250=

USA.gov is the U.S. government's official web portal to all federal, state and local government web resources and services.